Time;durP1;ratioP1;P1;durP2;ratioP2;P2;SDS_P1;SDS_P2;PMS_P1;PMS_P2;Temp;Humidity;BMP_temperature;BMP_pressure;BME280_temperature;BME280_humidity;BME280_pressure;Samples;Min_cycle;Max_cycle;Signal;HPM_P1;HPM_P2
2024/04/08 00:01:56;;;;;;;0.40;0.40;;;;;;;-139.19;100.00;56970.53;5061482;28;20362;-62
2024/04/08 00:04:22;;;;;;;0.25;0.25;;;;;;;-139.19;100.00;56970.53;5062378;28;20056;-62
2024/04/08 00:06:47;;;;;;;0.10;0.10;;;;;;;-139.19;100.00;56970.53;5061591;28;20029;-62
2024/04/08 00:09:12;;;;;;;0.22;0.22;;;;;;;-139.19;100.00;56970.53;5066994;28;20024;-62
2024/04/08 00:11:38;;;;;;;2.60;1.33;;;;;;;-139.19;100.00;56970.53;5063619;28;20033;-62
2024/04/08 00:14:04;;;;;;;0.38;0.30;;;;;;;-139.19;100.00;56970.53;5064316;28;20411;-62
2024/04/08 00:16:29;;;;;;;0.65;0.50;;;;;;;-139.19;100.00;56970.53;5064288;28;20029;-62
2024/04/08 00:18:55;;;;;;;0.20;0.20;;;;;;;-139.19;100.00;56970.53;5055419;28;20504;-62
2024/04/08 00:21:20;;;;;;;0.70;0.70;;;;;;;-139.19;100.00;56970.53;5061063;28;20447;-62
2024/04/08 00:23:45;;;;;;;4.70;0.45;;;;;;;-139.19;100.00;56970.53;5061291;28;20420;-62
2024/04/08 00:26:11;;;;;;;0.20;0.20;;;;;;;-139.19;100.00;56970.53;5061149;28;20405;-62
2024/04/08 00:28:37;;;;;;;1.48;0.90;;;;;;;-139.19;100.00;56970.53;5064185;28;20070;-62
2024/04/08 00:31:07;;;;;;;0.00;0.00;;;;;;;-139.19;100.00;56970.53;5063894;28;20024;-63
2024/04/08 00:33:34;;;;;;;0.08;0.08;;;;;;;-139.19;100.00;56970.53;5070403;28;20036;-62
2024/04/08 00:36:01;;;;;;;0.22;0.22;;;;;;;-139.19;100.00;56970.53;5060225;28;20029;-62
2024/04/08 00:38:26;;;;;;;6.07;1.23;;;;;;;-139.19;100.00;56970.53;5046194;28;20085;-64
2024/04/08 00:40:52;;;;;;;0.57;0.55;;;;;;;-139.19;100.00;56970.53;5041423;28;20029;-64
2024/04/08 00:43:17;;;;;;;11.02;2.05;;;;;;;-139.19;100.00;56970.53;5044048;28;20035;-64
2024/04/08 00:45:45;;;;;;;0.50;0.50;;;;;;;-139.19;100.00;56970.53;5044060;28;20071;-64
2024/04/08 00:48:13;;;;;;;1.00;0.65;;;;;;;-139.19;100.00;56970.53;5042254;28;20488;-64
2024/04/08 00:50:40;;;;;;;0.57;0.57;;;;;;;-139.19;100.00;56970.53;5041044;28;20164;-64
2024/04/08 00:53:06;;;;;;;0.10;0.10;;;;;;;-139.19;100.00;56970.53;5042191;28;20421;-64
2024/04/08 00:55:36;;;;;;;0.73;0.73;;;;;;;-139.19;100.00;56970.53;5052617;28;20033;-65
2024/04/08 00:58:01;;;;;;;0.63;0.63;;;;;;;-139.19;100.00;56970.53;5060807;28;20036;-64
2024/04/08 01:00:27;;;;;;;0.50;0.50;;;;;;;-139.19;100.00;56970.53;5061887;28;20029;-64
2024/04/08 01:02:54;;;;;;;0.20;0.20;;;;;;;-139.19;100.00;56970.53;5061756;28;20045;-64
2024/04/08 01:05:19;;;;;;;1.75;1.48;;;;;;;-139.19;100.00;56970.53;5064692;28;20103;-64
2024/04/08 01:07:46;;;;;;;3.35;1.00;;;;;;;-139.19;100.00;56970.53;5061505;28;20050;-64
2024/04/08 01:10:11;;;;;;;0.65;0.63;;;;;;;-139.19;100.00;56970.53;5063869;28;20025;-64
2024/04/08 01:12:40;;;;;;;23.20;1.08;;;;;;;-139.19;100.00;56970.53;5063880;28;20079;-64
2024/04/08 01:15:06;;;;;;;0.20;0.20;;;;;;;-139.19;100.00;56970.53;5055478;28;20045;-64
2024/04/08 01:17:31;;;;;;;0.45;0.20;;;;;;;-139.19;100.00;56970.53;5063791;28;20524;-64
2024/04/08 01:19:57;;;;;;;3.50;1.52;;;;;;;-139.19;100.00;56970.53;5063669;28;20032;-64
2024/04/08 01:22:22;;;;;;;1.00;0.43;;;;;;;-139.19;100.00;56970.53;5062440;28;20024;-64
2024/04/08 01:24:47;;;;;;;6.75;1.23;;;;;;;-139.19;100.00;56970.53;5054035;28;20025;-64
2024/04/08 01:27:13;;;;;;;0.50;0.50;;;;;;;-139.19;100.00;56970.53;5063903;28;20020;-64
2024/04/08 01:29:38;;;;;;;0.20;0.20;;;;;;;-139.19;100.00;56970.53;5062101;28;20384;-64
2024/04/08 01:32:03;;;;;;;1.55;0.63;;;;;;;-139.19;100.00;56970.53;5066715;28;20032;-64
2024/04/08 01:34:29;;;;;;;0.30;0.30;;;;;;;-139.19;100.00;56970.53;5067286;28;20432;-64
2024/04/08 01:36:54;;;;;;;0.25;0.20;;;;;;;-139.19;100.00;56970.53;5064715;28;20416;-64
2024/04/08 01:39:20;;;;;;;0.10;0.10;;;;;;;-139.19;100.00;56970.53;5064047;28;20036;-64
2024/04/08 01:41:45;;;;;;;0.28;0.20;;;;;;;-139.19;100.00;56970.53;5071191;28;20032;-65
2024/04/08 01:44:10;;;;;;;0.20;0.20;;;;;;;-139.19;100.00;56970.53;5065666;28;20040;-64
2024/04/08 01:46:36;;;;;;;4.82;2.53;;;;;;;-139.19;100.00;56970.53;5061373;28;20027;-64
2024/04/08 01:49:01;;;;;;;0.47;0.47;;;;;;;-139.19;100.00;56970.53;5067053;28;20095;-64
2024/04/08 01:51:27;;;;;;;0.10;0.10;;;;;;;-139.19;100.00;56970.53;5064159;28;20132;-64
2024/04/08 01:53:52;;;;;;;0.20;0.20;;;;;;;-139.19;100.00;56970.53;5064466;28;20067;-65
2024/04/08 01:56:17;;;;;;;1.73;0.70;;;;;;;-139.19;100.00;56970.53;5063122;28;20079;-64
2024/04/08 01:58:43;;;;;;;0.10;0.10;;;;;;;-139.19;100.00;56970.53;5065388;28;20024;-64
2024/04/08 02:01:08;;;;;;;0.40;0.40;;;;;;;-139.19;100.00;56970.53;5063602;28;20488;-64
2024/04/08 02:03:33;;;;;;;0.20;0.20;;;;;;;-139.19;100.00;56970.53;5065356;28;20036;-64
2024/04/08 02:05:58;;;;;;;0.13;0.13;;;;;;;-139.19;100.00;56970.53;5064306;28;20090;-64
2024/04/08 02:09:42;;;;;;;1.15;0.68;;;;;;;;;;5419740;26;20334;-64
2024/04/08 02:12:07;;;;;;;0.38;0.20;;;;;;;;;;5421650;26;20389;-64
2024/04/08 02:14:32;;;;;;;0.40;0.40;;;;;;;;;;5418166;26;20390;-64
2024/04/08 02:16:58;;;;;;;0.10;0.10;;;;;;;;;;5415631;26;20273;-64
2024/04/08 02:19:24;;;;;;;0.40;0.30;;;;;;;;;;5415602;26;20010;-64
2024/04/08 02:21:49;;;;;;;0.65;0.30;;;;;;;;;;5420749;26;20010;-64
2024/04/08 02:24:14;;;;;;;1.03;0.50;;;;;;;;;;5433693;26;20017;-64
2024/04/08 02:26:40;;;;;;;0.13;0.13;;;;;;;;;;5422425;26;19999;-64
2024/04/08 02:29:05;;;;;;;0.98;0.60;;;;;;;;;;5418185;26;20011;-63
2024/04/08 02:31:30;;;;;;;0.23;0.23;;;;;;;;;;5421317;26;19999;-64
2024/04/08 02:33:55;;;;;;;0.40;0.37;;;;;;;;;;5419753;26;20094;-64
2024/04/08 02:36:20;;;;;;;0.20;0.20;;;;;;;;;;5417457;26;20010;-64
2024/04/08 02:38:45;;;;;;;6.20;1.50;;;;;;;;;;5420570;26;20015;-64
2024/04/08 02:41:11;;;;;;;0.40;0.33;;;;;;;;;;5421322;26;20031;-64
2024/04/08 02:43:36;;;;;;;0.93;0.47;;;;;;;;;;5416896;26;20409;-64
2024/04/08 02:46:02;;;;;;;3.53;0.50;;;;;;;;;;5415446;26;20000;-64
2024/04/08 02:48:27;;;;;;;0.40;0.40;;;;;;;;;;5415129;26;20329;-64
2024/04/08 02:50:53;;;;;;;0.20;0.20;;;;;;;;;;5416962;26;20017;-64
2024/04/08 02:53:19;;;;;;;0.50;0.47;;;;;;;;;;5415417;26;20242;-64
2024/04/08 02:55:44;;;;;;;0.30;0.30;;;;;;;;;;5426941;26;20436;-64
2024/04/08 02:58:09;;;;;;;0.07;0.07;;;;;;;;;;5416742;26;20007;-64
2024/04/08 03:00:38;;;;;;;0.57;0.57;;;;;;;;;;5417378;26;20016;-64
2024/04/08 03:03:04;;;;;;;0.30;0.30;;;;;;;;;;5426102;26;20007;-64
2024/04/08 03:05:29;;;;;;;0.17;0.17;;;;;;;;;;5415054;26;20000;-64
2024/04/08 03:07:54;;;;;;;2.55;0.80;;;;;;;;;;5420311;26;20010;-64
2024/04/08 03:10:19;;;;;;;1.50;0.40;;;;;;;;;;5418198;26;20003;-64
2024/04/08 03:12:45;;;;;;;0.30;0.30;;;;;;;;;;5420421;26;20001;-64
2024/04/08 03:15:10;;;;;;;0.85;0.28;;;;;;;;;;5419523;26;20003;-64
2024/04/08 03:17:35;;;;;;;0.43;0.33;;;;;;;;;;5418866;26;20027;-64
2024/04/08 03:20:00;;;;;;;0.60;0.60;;;;;;;;;;5409280;26;20367;-64
2024/04/08 03:22:26;;;;;;;0.10;0.10;;;;;;;;;;5404786;26;20007;-64
2024/04/08 03:24:51;;;;;;;4.33;0.83;;;;;;;;;;5392480;26;20428;-64
2024/04/08 03:27:16;;;;;;;0.93;0.50;;;;;;;;;;5404633;26;20018;-64
2024/04/08 03:29:41;;;;;;;0.10;0.10;;;;;;;;;;5405277;26;19999;-64
2024/04/08 03:32:06;;;;;;;0.87;0.60;;;;;;;;;;5390300;26;20011;-64
2024/04/08 03:34:34;;;;;;;0.40;0.40;;;;;;;;;;5402943;26;20000;-64
2024/04/08 03:36:59;;;;;;;1.80;1.10;;;;;;;;;;5404578;26;19995;-64
2024/04/08 03:39:24;;;;;;;1.55;0.95;;;;;;;;;;5403290;26;20442;-64
2024/04/08 03:41:50;;;;;;;0.30;0.30;;;;;;;;;;5392367;26;20007;-64
2024/04/08 03:44:15;;;;;;;0.30;0.30;;;;;;;;;;5405114;26;20327;-64
2024/04/08 03:46:40;;;;;;;0.10;0.10;;;;;;;;;;5402982;26;20011;-64
2024/04/08 03:49:06;;;;;;;0.00;0.00;;;;;;;;;;5403924;26;20746;-64
2024/04/08 03:51:31;;;;;;;0.10;0.10;;;;;;;;;;5399118;26;20698;-64
2024/04/08 03:53:56;;;;;;;1.73;0.53;;;;;;;;;;5399527;26;20000;-64
2024/04/08 03:56:21;;;;;;;0.67;0.67;;;;;;;;;;5404716;26;20026;-64
2024/04/08 03:58:46;;;;;;;0.00;0.00;;;;;;;;;;5405190;26;20072;-64
2024/04/08 04:01:11;;;;;;;0.10;0.10;;;;;;;;;;5400321;26;19996;-64
2024/04/08 04:03:37;;;;;;;0.10;0.10;;;;;;;;;;5364746;26;20008;-64
2024/04/08 04:06:03;;;;;;;1.20;0.75;;;;;;;;;;5388435;26;20226;-64
2024/04/08 04:08:28;;;;;;;3.00;0.43;;;;;;;;;;5399012;26;20016;-62
2024/04/08 04:10:54;;;;;;;0.15;0.15;;;;;;;;;;5372885;26;19999;-62
2024/04/08 04:13:19;;;;;;;0.38;0.30;;;;;;;;;;5419199;26;20000;-61
2024/04/08 04:15:44;;;;;;;0.63;0.20;;;;;;;;;;5419161;26;19996;-62
2024/04/08 04:18:09;;;;;;;0.20;0.20;;;;;;;;;;5419125;26;20320;-61
2024/04/08 04:20:42;;;;;;;0.20;0.20;;;;;;;;;;5419125;26;20415;-61
2024/04/08 04:23:09;;;;;;;1.23;0.57;;;;;;;;;;5419056;26;19996;-61
2024/04/08 04:25:34;;;;;;;2.75;0.43;;;;;;;;;;5418965;26;19999;-62
2024/04/08 04:28:00;;;;;;;0.50;0.50;;;;;;;;;;5418917;26;20313;-62
2024/04/08 04:30:26;;;;;;;0.30;0.30;;;;;;;;;;5418945;26;20217;-62
2024/04/08 04:32:51;;;;;;;0.25;0.25;;;;;;;;;;5418955;26;20330;-62
2024/04/08 04:35:16;;;;;;;0.40;0.37;;;;;;;;;;5418927;26;20327;-62
2024/04/08 04:37:42;;;;;;;0.20;0.20;;;;;;;;;;5418831;26;20581;-61
2024/04/08 04:40:08;;;;;;;4.78;0.57;;;;;;;;;;5418768;26;20000;-62
2024/04/08 04:42:34;;;;;;;1.17;0.57;;;;;;;;;;5418846;26;20000;-61
2024/04/08 04:44:59;;;;;;;0.35;0.35;;;;;;;;;;5418723;26;20532;-61
2024/04/08 04:47:24;;;;;;;0.63;0.63;;;;;;;;;;5418682;26;20006;-62
2024/04/08 04:49:50;;;;;;;0.75;0.75;;;;;;;;;;5418705;26;20111;-61
2024/04/08 04:52:15;;;;;;;0.17;0.13;;;;;;;;;;5418621;26;20010;-61
2024/04/08 04:54:40;;;;;;;0.20;0.20;;;;;;;;;;5418645;26;20004;-61
2024/04/08 04:57:05;;;;;;;6.43;1.80;;;;;;;;;;5418607;26;19992;-62
2024/04/08 04:59:31;;;;;;;1.03;0.67;;;;;;;;;;5418674;26;19996;-61
2024/04/08 05:01:56;;;;;;;0.10;0.10;;;;;;;;;;5418504;26;20007;-61
2024/04/08 05:04:21;;;;;;;0.30;0.27;;;;;;;;;;5418460;26;19995;-61
2024/04/08 05:06:46;;;;;;;0.00;0.00;;;;;;;;;;5418538;26;19996;-62
2024/04/08 05:09:13;;;;;;;1.53;0.40;;;;;;;;;;5418455;26;20289;-62
2024/04/08 05:11:39;;;;;;;2.10;0.43;;;;;;;;;;5418675;26;19992;-61
2024/04/08 05:14:04;;;;;;;0.15;0.15;;;;;;;;;;5418696;26;20435;-62
2024/04/08 05:16:29;;;;;;;0.30;0.30;;;;;;;;;;5418739;26;20312;-61
2024/04/08 05:18:54;;;;;;;1.07;0.97;;;;;;;;;;5418627;26;20024;-61
2024/04/08 05:21:21;;;;;;;0.90;0.57;;;;;;;;;;5418633;26;20003;-61
2024/04/08 05:23:46;;;;;;;0.85;0.55;;;;;;;;;;5418490;26;20007;-61
2024/04/08 05:26:12;;;;;;;1.80;0.77;;;;;;;;;;5418451;26;19992;-62
2024/04/08 05:28:38;;;;;;;0.45;0.30;;;;;;;;;;5418399;26;19999;-62
2024/04/08 05:31:03;;;;;;;0.82;0.55;;;;;;;;;;5418419;26;19992;-61
2024/04/08 05:33:28;;;;;;;0.50;0.50;;;;;;;;;;5418416;26;19997;-61
2024/04/08 05:35:53;;;;;;;0.20;0.10;;;;;;;;;;5418379;26;20439;-61
2024/04/08 05:38:18;;;;;;;0.10;0.10;;;;;;;;;;5418279;26;19992;-61
2024/04/08 05:40:44;;;;;;;0.00;0.00;;;;;;;;;;5418310;26;20068;-61
2024/04/08 05:43:14;;;;;;;3.30;0.50;;;;;;;;;;5417547;26;20318;-61
2024/04/08 05:45:39;;;;;;;1.55;0.85;;;;;;;;;;5418184;26;20753;-61
2024/04/08 05:48:05;;;;;;;0.20;0.20;;;;;;;;;;5418025;26;19995;-61
2024/04/08 05:50:30;;;;;;;0.10;0.10;;;;;;;;;;5418154;26;20007;-61
2024/04/08 05:52:55;;;;;;;1.67;0.97;;;;;;;;;;5417720;26;20447;-62
2024/04/08 05:55:20;;;;;;;0.10;0.10;;;;;;;;;;5417750;26;20068;-61
2024/04/08 05:57:46;;;;;;;0.27;0.27;;;;;;;;;;5417666;26;20454;-61
2024/04/08 06:00:11;;;;;;;0.10;0.10;;;;;;;;;;5417750;26;20727;-61
2024/04/08 06:02:37;;;;;;;0.55;0.35;;;;;;;;;;5417599;26;20064;-61
2024/04/08 06:05:02;;;;;;;1.38;1.02;;;;;;;;;;5417535;26;19995;-61
2024/04/08 06:07:28;;;;;;;0.15;0.15;;;;;;;;;;5417438;26;20090;-61
2024/04/08 06:09:53;;;;;;;0.75;0.70;;;;;;;;;;5417839;26;20072;-61
2024/04/08 06:12:18;;;;;;;0.90;0.63;;;;;;;;;;5417753;26;20459;-61
2024/04/08 06:14:43;;;;;;;0.20;0.20;;;;;;;;;;5417741;26;20002;-61
2024/04/08 06:17:08;;;;;;;0.25;0.25;;;;;;;;;;5417634;26;19995;-61
2024/04/08 06:19:34;;;;;;;0.60;0.60;;;;;;;;;;5417669;26;20003;-61
2024/04/08 06:21:59;;;;;;;0.10;0.10;;;;;;;;;;5417600;26;20065;-61
2024/04/08 06:24:24;;;;;;;0.07;0.07;;;;;;;;;;5417550;26;20330;-61
2024/04/08 06:26:50;;;;;;;0.17;0.17;;;;;;;;;;5417555;26;20011;-61
2024/04/08 06:29:15;;;;;;;0.30;0.30;;;;;;;;;;5417341;26;20431;-61
2024/04/08 06:31:40;;;;;;;6.40;1.37;;;;;;;;;;5417651;26;20470;-61
2024/04/08 06:34:05;;;;;;;0.17;0.17;;;;;;;;;;5417386;26;20064;-61
2024/04/08 06:36:35;;;;;;;0.00;0.00;;;;;;;;;;5417344;26;19996;-61
2024/04/08 06:39:00;;;;;;;0.25;0.25;;;;;;;;;;5417252;26;20335;-61
2024/04/08 06:41:25;;;;;;;1.35;0.43;;;;;;;;;;5417288;26;20006;-61
2024/04/08 06:43:50;;;;;;;0.73;0.70;;;;;;;;;;5417172;26;20000;-61
2024/04/08 06:46:15;;;;;;;0.40;0.40;;;;;;;;;;5417149;26;20022;-61
2024/04/08 06:48:41;;;;;;;1.70;0.77;;;;;;;;;;5417171;26;20008;-61
2024/04/08 06:51:06;;;;;;;1.40;0.83;;;;;;;;;;5417075;26;19995;-61
2024/04/08 06:53:31;;;;;;;4.37;0.77;;;;;;;;;;5417046;26;19999;-61
2024/04/08 06:55:56;;;;;;;2.07;0.67;;;;;;;;;;5419487;26;19995;-61
2024/04/08 06:58:22;;;;;;;0.40;0.40;;;;;;;;;;5420365;26;20339;-61
2024/04/08 07:00:47;;;;;;;0.65;0.40;;;;;;;;;;5420295;26;19996;-62
2024/04/08 07:03:13;;;;;;;1.30;0.47;;;;;;;;;;5420253;26;20069;-61
2024/04/08 07:05:38;;;;;;;4.90;0.88;;;;;;;;;;5420012;26;20018;-61
2024/04/08 07:08:03;;;;;;;1.20;0.93;;;;;;;;;;5420052;26;20064;-62
2024/04/08 07:10:28;;;;;;;0.82;0.65;;;;;;;;;;5420396;26;20007;-61
2024/04/08 07:12:54;;;;;;;2.13;0.57;;;;;;;;;;5420418;26;19996;-61
2024/04/08 07:15:22;;;;;;;0.50;0.50;;;;;;;;;;5420343;26;19996;-62
2024/04/08 07:17:47;;;;;;;0.65;0.50;;;;;;;;;;5420306;26;20440;-62
2024/04/08 07:20:13;;;;;;;0.83;0.70;;;;;;;;;;5420257;26;20007;-62
2024/04/08 07:22:38;;;;;;;1.27;0.73;;;;;;;;;;5420267;26;20692;-62
2024/04/08 07:25:03;;;;;;;0.98;0.40;;;;;;;;;;5420224;26;19995;-62
2024/04/08 07:27:29;;;;;;;0.52;0.50;;;;;;;;;;5419754;26;20006;-62
2024/04/08 07:29:54;;;;;;;2.17;0.67;;;;;;;;;;5419834;26;19999;-62
2024/04/08 07:32:19;;;;;;;2.43;0.57;;;;;;;;;;5419752;26;19995;-62
2024/04/08 07:34:44;;;;;;;4.85;0.95;;;;;;;;;;5419750;26;20040;-62
2024/04/08 07:37:09;;;;;;;3.60;1.23;;;;;;;;;;5419783;26;20006;-62
2024/04/08 07:39:35;;;;;;;1.90;0.73;;;;;;;;;;5419636;26;20405;-62
2024/04/08 07:42:00;;;;;;;1.90;0.80;;;;;;;;;;5419705;26;19995;-62
2024/04/08 07:44:25;;;;;;;1.00;0.63;;;;;;;;;;5419631;26;20006;-62
2024/04/08 07:46:50;;;;;;;1.30;0.60;;;;;;;;;;5419527;26;20335;-62
2024/04/08 07:49:15;;;;;;;0.37;0.27;;;;;;;;;;5419523;26;20003;-62
2024/04/08 07:51:41;;;;;;;1.73;0.70;;;;;;;;;;5419591;26;20023;-62
2024/04/08 07:54:06;;;;;;;3.93;0.70;;;;;;;;;;5419510;26;20327;-62
2024/04/08 07:56:31;;;;;;;2.53;0.80;;;;;;;;;;5419466;26;19991;-62
2024/04/08 07:58:56;;;;;;;4.20;0.77;;;;;;;;;;5419429;26;20075;-62
2024/04/08 08:01:21;;;;;;;0.20;0.20;;;;;;;;;;5419391;26;20622;-62
2024/04/08 08:03:47;;;;;;;0.30;0.30;;;;;;;;;;5419352;26;19992;-62
2024/04/08 08:06:13;;;;;;;1.25;0.75;;;;;;;;;;5418780;26;20273;-62
2024/04/08 08:08:39;;;;;;;1.13;0.43;;;;;;;;;;5419289;26;19996;-62
2024/04/08 08:11:04;;;;;;;0.30;0.30;;;;;;;;;;5419586;26;20301;-62
2024/04/08 08:13:30;;;;;;;2.20;0.70;;;;;;;;;;5419521;26;20064;-62
2024/04/08 08:15:56;;;;;;;3.08;1.25;;;;;;;;;;5419486;26;20449;-62
2024/04/08 08:18:21;;;;;;;0.68;0.52;;;;;;;;;;5419464;26;20068;-62
2024/04/08 08:20:46;;;;;;;3.05;0.95;;;;;;;;;;5419498;26;20007;-62
2024/04/08 08:23:11;;;;;;;1.07;0.70;;;;;;;;;;5419346;26;20000;-62
2024/04/08 08:25:36;;;;;;;1.10;0.60;;;;;;;;;;5419382;26;20010;-62
2024/04/08 08:28:02;;;;;;;2.77;1.00;;;;;;;;;;5419303;26;19999;-62
2024/04/08 08:30:28;;;;;;;0.73;0.70;;;;;;;;;;5419316;26;19995;-62
2024/04/08 08:32:54;;;;;;;1.70;0.83;;;;;;;;;;5419245;26;20327;-62
2024/04/08 08:35:20;;;;;;;0.20;0.20;;;;;;;;;;5419218;26;20222;-62
2024/04/08 08:37:45;;;;;;;2.00;0.70;;;;;;;;;;5419216;26;20006;-62
2024/04/08 08:40:10;;;;;;;4.80;0.70;;;;;;;;;;5419152;26;19995;-62
2024/04/08 08:42:36;;;;;;;1.90;0.60;;;;;;;;;;5419166;26;20010;-62
2024/04/08 08:45:02;;;;;;;1.00;0.73;;;;;;;;;;5419123;26;20154;-62
2024/04/08 08:47:27;;;;;;;4.70;0.70;;;;;;;;;;5419071;26;20065;-63
2024/04/08 08:49:53;;;;;;;1.13;0.73;;;;;;;;;;5418983;26;20003;-63
2024/04/08 08:52:19;;;;;;;0.60;0.47;;;;;;;;;;5419004;26;20233;-63
2024/04/08 08:54:44;;;;;;;0.98;0.75;;;;;;;;;;5418953;26;19991;-63
2024/04/08 08:57:09;;;;;;;1.80;0.87;;;;;;;;;;5418911;26;20439;-63
2024/04/08 08:59:35;;;;;;;3.50;0.80;;;;;;;;;;5418912;26;19996;-63
2024/04/08 09:02:00;;;;;;;1.85;0.77;;;;;;;;;;5418881;26;20019;-63
2024/04/08 09:04:26;;;;;;;1.02;0.82;;;;;;;;;;5418757;26;20443;-63
2024/04/08 09:06:53;;;;;;;4.05;1.10;;;;;;;;;;5418415;26;19995;-63
2024/04/08 09:09:18;;;;;;;0.32;0.22;;;;;;;;;;5418552;26;20007;-63
2024/04/08 09:11:47;;;;;;;0.30;0.30;;;;;;;;;;5418756;26;20006;-64
2024/04/08 09:14:12;;;;;;;0.63;0.43;;;;;;;;;;5418665;26;19996;-64
2024/04/08 09:16:37;;;;;;;3.47;1.13;;;;;;;;;;5418240;26;20464;-64
2024/04/08 09:19:03;;;;;;;8.20;0.73;;;;;;;;;;5417864;26;20006;-64
2024/04/08 09:21:28;;;;;;;0.43;0.40;;;;;;;;;;5418515;26;19995;-63
2024/04/08 09:24:03;;;;;;;6.72;0.88;;;;;;;;;;5418705;26;20213;-64
2024/04/08 09:26:29;;;;;;;0.20;0.20;;;;;;;;;;5418610;26;20434;-63
2024/04/08 09:28:54;;;;;;;0.88;0.40;;;;;;;;;;5418401;26;20023;-63
2024/04/08 09:31:20;;;;;;;1.30;0.53;;;;;;;;;;5418397;26;20065;-63
2024/04/08 09:33:45;;;;;;;3.30;0.85;;;;;;;;;;5418409;26;20309;-63
2024/04/08 09:36:11;;;;;;;1.10;0.75;;;;;;;;;;5418397;26;20006;-63
2024/04/08 09:38:36;;;;;;;0.80;0.53;;;;;;;;;;5418345;26;20022;-63
2024/04/08 09:41:02;;;;;;;3.53;0.30;;;;;;;;;;5418285;26;20009;-63
2024/04/08 09:43:28;;;;;;;0.38;0.38;;;;;;;;;;5418244;26;20435;-63
2024/04/08 09:45:53;;;;;;;0.82;0.50;;;;;;;;;;5418247;26;20011;-63
2024/04/08 09:48:18;;;;;;;1.50;0.73;;;;;;;;;;5418110;26;20018;-63
2024/04/08 09:50:44;;;;;;;0.32;0.30;;;;;;;;;;5418170;26;20006;-63
2024/04/08 09:53:09;;;;;;;1.45;0.70;;;;;;;;;;5417805;26;20007;-63
2024/04/08 09:55:38;;;;;;;1.02;0.57;;;;;;;;;;5417820;26;20328;-63
2024/04/08 09:58:07;;;;;;;1.65;0.80;;;;;;;;;;5417790;26;19999;-63
2024/04/08 10:00:34;;;;;;;0.38;0.28;;;;;;;;;;5417676;26;20327;-63
2024/04/08 10:03:03;;;;;;;0.90;0.40;;;;;;;;;;5417588;26;19996;-63
2024/04/08 10:05:28;;;;;;;0.95;0.65;;;;;;;;;;5417568;26;20109;-63
2024/04/08 10:07:54;;;;;;;2.40;0.67;;;;;;;;;;5417343;26;20369;-63
2024/04/08 10:10:19;;;;;;;0.20;0.20;;;;;;;;;;5417492;26;20221;-63
2024/04/08 10:12:45;;;;;;;5.78;0.65;;;;;;;;;;5417456;26;19996;-63
2024/04/08 10:15:11;;;;;;;1.13;0.63;;;;;;;;;;5417410;26;20065;-64
2024/04/08 10:17:36;;;;;;;1.73;0.63;;;;;;;;;;5417365;26;20319;-63
2024/04/08 10:20:05;;;;;;;1.35;0.82;;;;;;;;;;5417340;26;20007;-63
2024/04/08 10:22:32;;;;;;;0.80;0.45;;;;;;;;;;5417272;26;20375;-63
2024/04/08 10:24:57;;;;;;;1.20;0.68;;;;;;;;;;5417227;26;20027;-63
2024/04/08 10:27:25;;;;;;;0.50;0.30;;;;;;;;;;5417123;26;20011;-63
2024/04/08 10:29:56;;;;;;;0.65;0.47;;;;;;;;;;5419698;26;19996;-64
2024/04/08 10:32:22;;;;;;;1.30;0.43;;;;;;;;;;5420592;26;19999;-63
2024/04/08 10:34:47;;;;;;;1.70;0.60;;;;;;;;;;5420983;26;20010;-64
2024/04/08 10:37:12;;;;;;;0.10;0.10;;;;;;;;;;5420585;26;20269;-64
2024/04/08 10:39:38;;;;;;;0.33;0.33;;;;;;;;;;5420622;26;20320;-63
2024/04/08 10:42:17;;;;;;;2.75;0.70;;;;;;;;;;5420506;26;20010;-63
2024/04/08 10:44:43;;;;;;;4.60;0.55;;;;;;;;;;5420485;26;20451;-64
2024/04/08 10:47:08;;;;;;;10.23;0.52;;;;;;;;;;5420593;26;20006;-63
2024/04/08 10:49:36;;;;;;;1.90;0.50;;;;;;;;;;5420345;26;19999;-63
2024/04/08 10:52:02;;;;;;;1.83;0.47;;;;;;;;;;5420374;26;20019;-63
2024/04/08 10:54:27;;;;;;;1.33;0.95;;;;;;;;;;5420316;26;20072;-64
2024/04/08 10:56:53;;;;;;;0.43;0.30;;;;;;;;;;5420360;26;20436;-64
2024/04/08 10:59:18;;;;;;;0.65;0.28;;;;;;;;;;5420276;26;20367;-64
2024/04/08 11:01:44;;;;;;;0.40;0.37;;;;;;;;;;5420273;26;19995;-64
2024/04/08 11:04:09;;;;;;;0.70;0.70;;;;;;;;;;5420191;26;20359;-63
2024/04/08 11:06:34;;;;;;;0.20;0.20;;;;;;;;;;5418548;26;20024;-62
2024/04/08 11:08:59;;;;;;;0.28;0.25;;;;;;;;;;5419879;26;20000;-62
2024/04/08 11:11:27;;;;;;;0.10;0.10;;;;;;;;;;5420097;26;19995;-62
2024/04/08 11:13:53;;;;;;;1.17;0.32;;;;;;;;;;5420080;26;19999;-62
2024/04/08 11:16:18;;;;;;;0.97;0.53;;;;;;;;;;5420056;26;20000;-62
2024/04/08 11:18:45;;;;;;;0.10;0.10;;;;;;;;;;5420032;26;20458;-62
2024/04/08 11:21:11;;;;;;;0.45;0.40;;;;;;;;;;5419936;26;20003;-62
2024/04/08 11:23:40;;;;;;;0.73;0.35;;;;;;;;;;5419944;26;20313;-62
2024/04/08 11:26:07;;;;;;;3.10;0.32;;;;;;;;;;5420079;26;20495;-62
2024/04/08 11:28:32;;;;;;;0.28;0.28;;;;;;;;;;5419818;26;20004;-62
2024/04/08 11:30:57;;;;;;;0.10;0.10;;;;;;;;;;5419780;26;20431;-62
2024/04/08 11:33:22;;;;;;;0.37;0.30;;;;;;;;;;5419789;26;20006;-62
2024/04/08 11:35:48;;;;;;;3.73;1.10;;;;;;;;;;5419791;26;20723;-62
2024/04/08 11:38:16;;;;;;;1.80;0.53;;;;;;;;;;5419784;26;20003;-62
2024/04/08 11:40:41;;;;;;;0.10;0.10;;;;;;;;;;5418851;26;20447;-62
2024/04/08 11:43:06;;;;;;;0.27;0.10;;;;;;;;;;5419674;26;20000;-62
2024/04/08 11:45:32;;;;;;;0.20;0.20;;;;;;;;;;5419622;26;20086;-62
2024/04/08 11:47:57;;;;;;;0.63;0.43;;;;;;;;;;5419526;26;20003;-62
2024/04/08 11:50:22;;;;;;;0.83;0.30;;;;;;;;;;5419607;26;20006;-62
2024/04/08 11:52:48;;;;;;;0.10;0.10;;;;;;;;;;5419496;26;19996;-62
2024/04/08 11:55:13;;;;;;;0.40;0.37;;;;;;;;;;5419511;26;20518;-62
2024/04/08 11:57:38;;;;;;;0.45;0.30;;;;;;;;;;5419492;26;20534;-62
2024/04/08 12:00:04;;;;;;;0.30;0.20;;;;;;;;;;5419442;26;20000;-62
2024/04/08 12:02:29;;;;;;;0.73;0.43;;;;;;;;;;5419390;26;20007;-62
2024/04/08 12:04:55;;;;;;;0.83;0.40;;;;;;;;;;5419250;26;20326;-62
2024/04/08 12:07:20;;;;;;;3.23;0.43;;;;;;;;;;5419122;26;20327;-62
2024/04/08 12:09:45;;;;;;;0.53;0.43;;;;;;;;;;5419626;26;20420;-62
2024/04/08 12:12:13;;;;;;;0.87;0.40;;;;;;;;;;5419583;26;20222;-62
2024/04/08 12:14:38;;;;;;;3.03;0.20;;;;;;;;;;5419560;26;20007;-62
2024/04/08 12:17:04;;;;;;;0.70;0.50;;;;;;;;;;5419636;26;20000;-62
2024/04/08 12:19:29;;;;;;;8.98;0.30;;;;;;;;;;5419428;26;20038;-62
2024/04/08 12:21:54;;;;;;;0.80;0.30;;;;;;;;;;5419462;26;20006;-62
2024/04/08 12:24:19;;;;;;;0.33;0.30;;;;;;;;;;5419433;26;20007;-62
2024/04/08 12:26:45;;;;;;;0.20;0.20;;;;;;;;;;5419329;26;20009;-62
2024/04/08 12:29:10;;;;;;;1.42;0.50;;;;;;;;;;5419290;26;20322;-62
2024/04/08 12:31:35;;;;;;;1.10;0.17;;;;;;;;;;5419330;26;20075;-62
2024/04/08 12:34:00;;;;;;;0.10;0.10;;;;;;;;;;5419258;26;20320;-62
2024/04/08 12:36:25;;;;;;;0.50;0.20;;;;;;;;;;5419230;26;20002;-62
2024/04/08 12:38:51;;;;;;;0.27;0.20;;;;;;;;;;5419169;26;19995;-62
2024/04/08 12:41:17;;;;;;;2.55;0.55;;;;;;;;;;5419243;26;20221;-62
2024/04/08 12:43:44;;;;;;;0.82;0.52;;;;;;;;;;5419164;26;20000;-62
2024/04/08 12:46:09;;;;;;;1.08;0.40;;;;;;;;;;5419116;26;20069;-62
2024/04/08 12:48:34;;;;;;;0.30;0.20;;;;;;;;;;5419039;26;20007;-62
2024/04/08 12:51:00;;;;;;;0.10;0.10;;;;;;;;;;5418983;26;19999;-62
2024/04/08 12:53:25;;;;;;;0.43;0.40;;;;;;;;;;5417424;26;19996;-62
2024/04/08 12:55:50;;;;;;;0.17;0.17;;;;;;;;;;5418989;26;20014;-62
2024/04/08 12:58:16;;;;;;;0.10;0.10;;;;;;;;;;5418684;26;20041;-62
2024/04/08 13:00:41;;;;;;;0.50;0.40;;;;;;;;;;5418647;26;19999;-62
2024/04/08 13:03:06;;;;;;;1.90;0.60;;;;;;;;;;5418582;26;20006;-62
2024/04/08 13:05:32;;;;;;;6.70;1.17;;;;;;;;;;5418360;26;20011;-62
2024/04/08 13:07:57;;;;;;;7.28;0.88;;;;;;;;;;5418310;26;19996;-62
2024/04/08 13:10:23;;;;;;;0.73;0.22;;;;;;;;;;5418476;26;20436;-62
2024/04/08 13:12:48;;;;;;;3.53;0.47;;;;;;;;;;5418483;26;19996;-62
2024/04/08 13:15:13;;;;;;;0.30;0.20;;;;;;;;;;5418381;26;20005;-62
2024/04/08 13:17:39;;;;;;;0.20;0.20;;;;;;;;;;5418410;26;19996;-62
2024/04/08 13:20:05;;;;;;;2.63;0.98;;;;;;;;;;5418297;26;20452;-62
2024/04/08 13:22:31;;;;;;;0.95;0.57;;;;;;;;;;5418294;26;19999;-62
2024/04/08 13:24:57;;;;;;;0.32;0.20;;;;;;;;;;5418175;26;19996;-62
2024/04/08 13:27:22;;;;;;;2.55;0.45;;;;;;;;;;5418194;26;20064;-64
2024/04/08 13:29:47;;;;;;;0.00;0.00;;;;;;;;;;5418237;26;19992;-64
2024/04/08 13:32:12;;;;;;;0.47;0.43;;;;;;;;;;5418147;26;19999;-64
2024/04/08 13:34:38;;;;;;;0.10;0.10;;;;;;;;;;5418141;26;20002;-64
2024/04/08 13:37:03;;;;;;;0.73;0.50;;;;;;;;;;5418119;26;19995;-64
2024/04/08 13:39:29;;;;;;;0.28;0.20;;;;;;;;;;5418030;26;20407;-64
2024/04/08 13:41:54;;;;;;;0.10;0.10;;;;;;;;;;5418029;26;20027;-64
2024/04/08 13:44:19;;;;;;;0.77;0.43;;;;;;;;;;5417987;26;20359;-64
2024/04/08 13:46:44;;;;;;;0.87;0.50;;;;;;;;;;5417883;26;20009;-64
2024/04/08 13:49:09;;;;;;;1.60;0.43;;;;;;;;;;5417783;26;20090;-64
2024/04/08 13:51:35;;;;;;;0.30;0.20;;;;;;;;;;5417830;26;19996;-64
2024/04/08 13:54:00;;;;;;;0.10;0.10;;;;;;;;;;5417791;26;19999;-64